sensor_id;sensor_type;location;lat;lon;timestamp;P1;durP1;ratioP1;P2;durP2;ratioP2
37781;SDS011;23621;50.878;4.584;2023-02-28T00:00:41;9.13;;;6.80;;
37781;SDS011;23621;50.878;4.584;2023-02-28T00:03:09;9.68;;;7.43;;
37781;SDS011;23621;50.878;4.584;2023-02-28T00:05:55;8.55;;;7.57;;
37781;SDS011;23621;50.878;4.584;2023-02-28T00:08:22;8.90;;;7.55;;
37781;SDS011;23621;50.878;4.584;2023-02-28T00:10:49;11.57;;;7.47;;
37781;SDS011;23621;50.878;4.584;2023-02-28T00:13:21;8.30;;;7.38;;
37781;SDS011;23621;50.878;4.584;2023-02-28T00:15:57;7.72;;;7.03;;
37781;SDS011;23621;50.878;4.584;2023-02-28T00:18:28;9.30;;;7.05;;
37781;SDS011;23621;50.878;4.584;2023-02-28T00:20:57;9.15;;;7.45;;
37781;SDS011;23621;50.878;4.584;2023-02-28T00:23:24;8.98;;;7.20;;
37781;SDS011;23621;50.878;4.584;2023-02-28T00:26:03;8.90;;;7.22;;
37781;SDS011;23621;50.878;4.584;2023-02-28T00:28:30;7.93;;;7.13;;
37781;SDS011;23621;50.878;4.584;2023-02-28T00:30:57;9.77;;;6.82;;
37781;SDS011;23621;50.878;4.584;2023-02-28T00:33:45;7.90;;;7.00;;
37781;SDS011;23621;50.878;4.584;2023-02-28T00:36:30;8.02;;;7.22;;
37781;SDS011;23621;50.878;4.584;2023-02-28T00:38:57;9.65;;;7.07;;
37781;SDS011;23621;50.878;4.584;2023-02-28T00:41:43;8.55;;;7.30;;
37781;SDS011;23621;50.878;4.584;2023-02-28T00:44:10;7.85;;;7.05;;
37781;SDS011;23621;50.878;4.584;2023-02-28T00:46:37;7.70;;;7.00;;
37781;SDS011;23621;50.878;4.584;2023-02-28T00:49:10;7.82;;;7.05;;
37781;SDS011;23621;50.878;4.584;2023-02-28T00:51:36;9.23;;;7.07;;
37781;SDS011;23621;50.878;4.584;2023-02-28T00:54:03;7.68;;;6.88;;
37781;SDS011;23621;50.878;4.584;2023-02-28T00:56:30;7.53;;;6.63;;
37781;SDS011;23621;50.878;4.584;2023-02-28T00:58:57;9.15;;;7.60;;
37781;SDS011;23621;50.878;4.584;2023-02-28T01:01:24;8.35;;;6.63;;
37781;SDS011;23621;50.878;4.584;2023-02-28T01:03:51;8.88;;;6.57;;
37781;SDS011;23621;50.878;4.584;2023-02-28T01:06:18;7.45;;;6.25;;
37781;SDS011;23621;50.878;4.584;2023-02-28T01:08:45;10.20;;;6.57;;
37781;SDS011;23621;50.878;4.584;2023-02-28T01:11:13;8.02;;;7.05;;
37781;SDS011;23621;50.878;4.584;2023-02-28T01:13:43;8.48;;;6.88;;
37781;SDS011;23621;50.878;4.584;2023-02-28T01:16:10;9.00;;;7.05;;
37781;SDS011;23621;50.878;4.584;2023-02-28T01:18:38;8.23;;;6.75;;
37781;SDS011;23621;50.878;4.584;2023-02-28T01:21:06;9.80;;;7.28;;
37781;SDS011;23621;50.878;4.584;2023-02-28T01:23:35;9.25;;;7.55;;
37781;SDS011;23621;50.878;4.584;2023-02-28T01:26:10;8.07;;;7.22;;
37781;SDS011;23621;50.878;4.584;2023-02-28T01:28:39;7.40;;;6.43;;
37781;SDS011;23621;50.878;4.584;2023-02-28T01:31:07;9.35;;;7.07;;
37781;SDS011;23621;50.878;4.584;2023-02-28T01:33:35;8.18;;;6.93;;
37781;SDS011;23621;50.878;4.584;2023-02-28T01:36:13;8.65;;;6.47;;
37781;SDS011;23621;50.878;4.584;2023-02-28T01:39:02;12.48;;;6.97;;
37781;SDS011;23621;50.878;4.584;2023-02-28T01:41:31;9.82;;;6.40;;
37781;SDS011;23621;50.878;4.584;2023-02-28T01:44:01;9.80;;;7.65;;
37781;SDS011;23621;50.878;4.584;2023-02-28T01:46:31;10.50;;;6.93;;
37781;SDS011;23621;50.878;4.584;2023-02-28T01:51:38;7.63;;;6.25;;
37781;SDS011;23621;50.878;4.584;2023-02-28T01:54:07;9.30;;;6.93;;
37781;SDS011;23621;50.878;4.584;2023-02-28T01:56:42;8.98;;;7.10;;
37781;SDS011;23621;50.878;4.584;2023-02-28T01:59:14;9.68;;;6.80;;
37781;SDS011;23621;50.878;4.584;2023-02-28T02:02:23;7.00;;;6.20;;
37781;SDS011;23621;50.878;4.584;2023-02-28T02:04:53;8.43;;;7.22;;
37781;SDS011;23621;50.878;4.584;2023-02-28T02:07:23;8.73;;;6.40;;
37781;SDS011;23621;50.878;4.584;2023-02-28T02:10:01;8.40;;;6.85;;
37781;SDS011;23621;50.878;4.584;2023-02-28T02:16:21;7.50;;;6.72;;
37781;SDS011;23621;50.878;4.584;2023-02-28T02:21:54;10.80;;;7.05;;
37781;SDS011;23621;50.878;4.584;2023-02-28T02:24:46;8.98;;;7.05;;
37781;SDS011;23621;50.878;4.584;2023-02-28T02:28:00;8.77;;;6.63;;
37781;SDS011;23621;50.878;4.584;2023-02-28T02:31:04;8.07;;;6.97;;
37781;SDS011;23621;50.878;4.584;2023-02-28T02:37:08;8.60;;;7.53;;
37781;SDS011;23621;50.878;4.584;2023-02-28T02:42:59;8.48;;;6.80;;
37781;SDS011;23621;50.878;4.584;2023-02-28T02:45:59;8.43;;;7.05;;
37781;SDS011;23621;50.878;4.584;2023-02-28T02:48:33;8.63;;;7.35;;
37781;SDS011;23621;50.878;4.584;2023-02-28T02:51:18;8.82;;;7.32;;
37781;SDS011;23621;50.878;4.584;2023-02-28T02:53:50;11.02;;;7.28;;
37781;SDS011;23621;50.878;4.584;2023-02-28T02:56:28;8.55;;;7.32;;
37781;SDS011;23621;50.878;4.584;2023-02-28T02:59:02;9.10;;;6.97;;
37781;SDS011;23621;50.878;4.584;2023-02-28T03:01:32;8.95;;;7.45;;
37781;SDS011;23621;50.878;4.584;2023-02-28T03:04:10;9.57;;;7.30;;
37781;SDS011;23621;50.878;4.584;2023-02-28T03:06:45;10.20;;;7.80;;
37781;SDS011;23621;50.878;4.584;2023-02-28T03:09:12;9.20;;;7.50;;
37781;SDS011;23621;50.878;4.584;2023-02-28T03:11:40;10.75;;;7.47;;
37781;SDS011;23621;50.878;4.584;2023-02-28T03:14:10;8.25;;;7.38;;
37781;SDS011;23621;50.878;4.584;2023-02-28T03:27:21;9.57;;;7.57;;
37781;SDS011;23621;50.878;4.584;2023-02-28T03:30:33;10.00;;;7.57;;
37781;SDS011;23621;50.878;4.584;2023-02-28T03:33:16;8.13;;;7.32;;
37781;SDS011;23621;50.878;4.584;2023-02-28T03:35:54;11.88;;;7.30;;
37781;SDS011;23621;50.878;4.584;2023-02-28T03:38:29;9.20;;;7.47;;
37781;SDS011;23621;50.878;4.584;2023-02-28T03:41:01;8.63;;;6.78;;
37781;SDS011;23621;50.878;4.584;2023-02-28T03:43:43;9.32;;;7.22;;
37781;SDS011;23621;50.878;4.584;2023-02-28T03:46:36;9.38;;;7.90;;
37781;SDS011;23621;50.878;4.584;2023-02-28T03:49:14;8.43;;;7.28;;
37781;SDS011;23621;50.878;4.584;2023-02-28T03:51:47;7.82;;;7.03;;
37781;SDS011;23621;50.878;4.584;2023-02-28T03:54:18;9.10;;;7.57;;
37781;SDS011;23621;50.878;4.584;2023-02-28T03:56:53;8.73;;;7.80;;
37781;SDS011;23621;50.878;4.584;2023-02-28T03:59:36;9.02;;;7.40;;
37781;SDS011;23621;50.878;4.584;2023-02-28T04:02:10;7.50;;;6.80;;
37781;SDS011;23621;50.878;4.584;2023-02-28T04:04:37;8.23;;;7.43;;
37781;SDS011;23621;50.878;4.584;2023-02-28T04:07:13;9.85;;;7.00;;
37781;SDS011;23621;50.878;4.584;2023-02-28T04:09:41;9.38;;;7.53;;
37781;SDS011;23621;50.878;4.584;2023-02-28T04:12:08;8.27;;;7.00;;
37781;SDS011;23621;50.878;4.584;2023-02-28T04:14:35;8.52;;;7.63;;
37781;SDS011;23621;50.878;4.584;2023-02-28T04:17:02;9.07;;;8.05;;
37781;SDS011;23621;50.878;4.584;2023-02-28T04:19:29;10.30;;;7.55;;
37781;SDS011;23621;50.878;4.584;2023-02-28T04:21:56;9.23;;;7.80;;
37781;SDS011;23621;50.878;4.584;2023-02-28T04:24:24;8.77;;;7.88;;
37781;SDS011;23621;50.878;4.584;2023-02-28T04:26:56;11.73;;;8.30;;
37781;SDS011;23621;50.878;4.584;2023-02-28T04:29:26;9.73;;;7.97;;
37781;SDS011;23621;50.878;4.584;2023-02-28T04:31:54;9.57;;;8.52;;
37781;SDS011;23621;50.878;4.584;2023-02-28T04:34:25;11.18;;;8.75;;
37781;SDS011;23621;50.878;4.584;2023-02-28T04:36:53;9.52;;;8.30;;
37781;SDS011;23621;50.878;4.584;2023-02-28T04:39:37;13.45;;;8.75;;
37781;SDS011;23621;50.878;4.584;2023-02-28T04:42:05;12.43;;;9.68;;
37781;SDS011;23621;50.878;4.584;2023-02-28T04:44:32;10.13;;;8.63;;
37781;SDS011;23621;50.878;4.584;2023-02-28T04:46:59;11.13;;;9.02;;
37781;SDS011;23621;50.878;4.584;2023-02-28T04:49:26;11.05;;;8.93;;
37781;SDS011;23621;50.878;4.584;2023-02-28T04:51:54;10.13;;;8.65;;
37781;SDS011;23621;50.878;4.584;2023-02-28T04:54:22;13.45;;;8.90;;
37781;SDS011;23621;50.878;4.584;2023-02-28T04:56:51;11.32;;;8.85;;
37781;SDS011;23621;50.878;4.584;2023-02-28T04:59:18;10.07;;;8.98;;
37781;SDS011;23621;50.878;4.584;2023-02-28T05:01:46;10.75;;;9.07;;
37781;SDS011;23621;50.878;4.584;2023-02-28T05:04:14;10.10;;;8.45;;
37781;SDS011;23621;50.878;4.584;2023-02-28T05:06:41;10.98;;;9.15;;
37781;SDS011;23621;50.878;4.584;2023-02-28T05:09:08;12.23;;;9.10;;
37781;SDS011;23621;50.878;4.584;2023-02-28T05:11:41;11.18;;;8.35;;
37781;SDS011;23621;50.878;4.584;2023-02-28T05:14:11;10.80;;;8.70;;
37781;SDS011;23621;50.878;4.584;2023-02-28T05:16:40;12.80;;;9.20;;
37781;SDS011;23621;50.878;4.584;2023-02-28T05:19:07;10.38;;;8.18;;
37781;SDS011;23621;50.878;4.584;2023-02-28T05:21:36;10.43;;;9.30;;
37781;SDS011;23621;50.878;4.584;2023-02-28T05:24:05;10.63;;;8.93;;
37781;SDS011;23621;50.878;4.584;2023-02-28T05:26:36;11.38;;;9.13;;
37781;SDS011;23621;50.878;4.584;2023-02-28T05:29:05;9.65;;;8.68;;
37781;SDS011;23621;50.878;4.584;2023-02-28T05:31:51;10.05;;;8.93;;
37781;SDS011;23621;50.878;4.584;2023-02-28T05:34:18;10.95;;;9.10;;
37781;SDS011;23621;50.878;4.584;2023-02-28T05:36:45;12.02;;;9.00;;
37781;SDS011;23621;50.878;4.584;2023-02-28T05:39:15;13.35;;;9.57;;
37781;SDS011;23621;50.878;4.584;2023-02-28T05:41:42;13.32;;;10.05;;
37781;SDS011;23621;50.878;4.584;2023-02-28T05:44:12;12.30;;;9.82;;
37781;SDS011;23621;50.878;4.584;2023-02-28T05:46:39;13.60;;;11.05;;
37781;SDS011;23621;50.878;4.584;2023-02-28T05:49:06;15.30;;;11.00;;
37781;SDS011;23621;50.878;4.584;2023-02-28T05:51:33;15.13;;;11.70;;
37781;SDS011;23621;50.878;4.584;2023-02-28T05:54:02;12.63;;;11.02;;
37781;SDS011;23621;50.878;4.584;2023-02-28T05:56:30;13.45;;;11.20;;
37781;SDS011;23621;50.878;4.584;2023-02-28T05:58:57;14.00;;;10.85;;
37781;SDS011;23621;50.878;4.584;2023-02-28T06:01:40;15.55;;;11.35;;
37781;SDS011;23621;50.878;4.584;2023-02-28T06:04:33;17.70;;;11.48;;
37781;SDS011;23621;50.878;4.584;2023-02-28T06:07:00;17.45;;;12.40;;
37781;SDS011;23621;50.878;4.584;2023-02-28T06:09:28;15.18;;;11.88;;
37781;SDS011;23621;50.878;4.584;2023-02-28T06:11:57;13.60;;;11.55;;
37781;SDS011;23621;50.878;4.584;2023-02-28T06:14:25;14.25;;;10.93;;
37781;SDS011;23621;50.878;4.584;2023-02-28T06:16:52;14.07;;;9.75;;
37781;SDS011;23621;50.878;4.584;2023-02-28T06:19:19;13.18;;;10.82;;
37781;SDS011;23621;50.878;4.584;2023-02-28T06:21:49;12.35;;;10.30;;
37781;SDS011;23621;50.878;4.584;2023-02-28T06:24:19;11.93;;;10.23;;
37781;SDS011;23621;50.878;4.584;2023-02-28T06:26:46;12.07;;;10.68;;
37781;SDS011;23621;50.878;4.584;2023-02-28T06:29:14;12.95;;;10.32;;
37781;SDS011;23621;50.878;4.584;2023-02-28T06:32:03;11.30;;;9.65;;
37781;SDS011;23621;50.878;4.584;2023-02-28T06:34:30;12.38;;;10.57;;
37781;SDS011;23621;50.878;4.584;2023-02-28T06:37:09;13.60;;;9.82;;
37781;SDS011;23621;50.878;4.584;2023-02-28T06:39:36;15.43;;;9.27;;
37781;SDS011;23621;50.878;4.584;2023-02-28T06:42:03;11.77;;;10.23;;
37781;SDS011;23621;50.878;4.584;2023-02-28T06:44:30;15.57;;;10.95;;
37781;SDS011;23621;50.878;4.584;2023-02-28T06:47:04;11.90;;;10.65;;
37781;SDS011;23621;50.878;4.584;2023-02-28T06:49:33;13.40;;;9.48;;
37781;SDS011;23621;50.878;4.584;2023-02-28T06:52:02;14.57;;;10.45;;
37781;SDS011;23621;50.878;4.584;2023-02-28T06:54:29;13.52;;;10.18;;
37781;SDS011;23621;50.878;4.584;2023-02-28T06:56:57;11.60;;;10.25;;
37781;SDS011;23621;50.878;4.584;2023-02-28T06:59:24;15.68;;;10.27;;
37781;SDS011;23621;50.878;4.584;2023-02-28T07:01:51;11.18;;;9.95;;
37781;SDS011;23621;50.878;4.584;2023-02-28T07:04:19;12.85;;;10.15;;
37781;SDS011;23621;50.878;4.584;2023-02-28T07:06:46;12.70;;;10.27;;
37781;SDS011;23621;50.878;4.584;2023-02-28T07:09:13;12.57;;;10.40;;
37781;SDS011;23621;50.878;4.584;2023-02-28T07:11:40;10.60;;;9.35;;
37781;SDS011;23621;50.878;4.584;2023-02-28T07:14:09;12.77;;;9.75;;
37781;SDS011;23621;50.878;4.584;2023-02-28T07:16:36;12.75;;;10.30;;
37781;SDS011;23621;50.878;4.584;2023-02-28T07:19:03;11.43;;;10.05;;
37781;SDS011;23621;50.878;4.584;2023-02-28T07:21:30;13.10;;;10.75;;
37781;SDS011;23621;50.878;4.584;2023-02-28T07:23:57;11.30;;;10.10;;
37781;SDS011;23621;50.878;4.584;2023-02-28T07:26:24;13.68;;;9.82;;
37781;SDS011;23621;50.878;4.584;2023-02-28T07:28:54;11.48;;;9.40;;
37781;SDS011;23621;50.878;4.584;2023-02-28T07:31:32;12.98;;;10.38;;
37781;SDS011;23621;50.878;4.584;2023-02-28T07:34:19;15.43;;;11.23;;
37781;SDS011;23621;50.878;4.584;2023-02-28T07:36:46;16.15;;;11.25;;
37781;SDS011;23621;50.878;4.584;2023-02-28T07:39:13;14.75;;;11.55;;
37781;SDS011;23621;50.878;4.584;2023-02-28T07:41:40;14.63;;;11.15;;
37781;SDS011;23621;50.878;4.584;2023-02-28T07:44:13;14.43;;;11.25;;
37781;SDS011;23621;50.878;4.584;2023-02-28T07:46:40;15.15;;;10.60;;
37781;SDS011;23621;50.878;4.584;2023-02-28T07:49:07;14.07;;;10.85;;
37781;SDS011;23621;50.878;4.584;2023-02-28T07:51:34;14.10;;;10.15;;
37781;SDS011;23621;50.878;4.584;2023-02-28T07:54:01;17.33;;;11.13;;
37781;SDS011;23621;50.878;4.584;2023-02-28T07:56:28;11.63;;;10.32;;
37781;SDS011;23621;50.878;4.584;2023-02-28T07:58:56;12.65;;;10.43;;
37781;SDS011;23621;50.878;4.584;2023-02-28T08:01:41;14.40;;;10.43;;
37781;SDS011;23621;50.878;4.584;2023-02-28T08:04:10;15.38;;;10.23;;
37781;SDS011;23621;50.878;4.584;2023-02-28T08:06:37;15.60;;;9.35;;
37781;SDS011;23621;50.878;4.584;2023-02-28T08:09:23;12.38;;;9.20;;
37781;SDS011;23621;50.878;4.584;2023-02-28T08:11:50;10.15;;;8.77;;
37781;SDS011;23621;50.878;4.584;2023-02-28T08:14:36;10.77;;;8.70;;
37781;SDS011;23621;50.878;4.584;2023-02-28T08:17:04;10.45;;;8.70;;
37781;SDS011;23621;50.878;4.584;2023-02-28T08:19:49;11.68;;;8.48;;
37781;SDS011;23621;50.878;4.584;2023-02-28T08:22:16;10.20;;;8.35;;
37781;SDS011;23621;50.878;4.584;2023-02-28T08:24:43;9.40;;;7.80;;
37781;SDS011;23621;50.878;4.584;2023-02-28T08:27:13;10.07;;;8.38;;
37781;SDS011;23621;50.878;4.584;2023-02-28T08:29:59;16.02;;;7.90;;
37781;SDS011;23621;50.878;4.584;2023-02-28T08:32:44;8.60;;;6.82;;
37781;SDS011;23621;50.878;4.584;2023-02-28T08:35:11;7.65;;;6.93;;
37781;SDS011;23621;50.878;4.584;2023-02-28T08:37:39;11.07;;;7.00;;
37781;SDS011;23621;50.878;4.584;2023-02-28T08:40:06;10.70;;;6.90;;
37781;SDS011;23621;50.878;4.584;2023-02-28T08:42:34;8.63;;;6.60;;
37781;SDS011;23621;50.878;4.584;2023-02-28T08:45:02;8.38;;;6.47;;
37781;SDS011;23621;50.878;4.584;2023-02-28T08:47:29;8.27;;;5.57;;
37781;SDS011;23621;50.878;4.584;2023-02-28T08:49:56;6.93;;;5.88;;
37781;SDS011;23621;50.878;4.584;2023-02-28T08:52:23;7.75;;;5.80;;
37781;SDS011;23621;50.878;4.584;2023-02-28T08:54:50;6.43;;;5.30;;
37781;SDS011;23621;50.878;4.584;2023-02-28T08:57:36;7.80;;;5.50;;
37781;SDS011;23621;50.878;4.584;2023-02-28T09:00:04;7.35;;;5.63;;
37781;SDS011;23621;50.878;4.584;2023-02-28T09:02:31;8.75;;;5.78;;
37781;SDS011;23621;50.878;4.584;2023-02-28T09:04:58;6.78;;;5.45;;
37781;SDS011;23621;50.878;4.584;2023-02-28T09:07:25;7.13;;;5.85;;
37781;SDS011;23621;50.878;4.584;2023-02-28T09:09:52;6.88;;;5.38;;
37781;SDS011;23621;50.878;4.584;2023-02-28T09:12:24;5.00;;;4.50;;
37781;SDS011;23621;50.878;4.584;2023-02-28T09:14:52;6.00;;;5.15;;
37781;SDS011;23621;50.878;4.584;2023-02-28T09:17:19;7.45;;;5.10;;
37781;SDS011;23621;50.878;4.584;2023-02-28T09:19:47;5.38;;;4.60;;
37781;SDS011;23621;50.878;4.584;2023-02-28T09:22:15;8.07;;;5.15;;
37781;SDS011;23621;50.878;4.584;2023-02-28T09:24:45;8.35;;;5.30;;
37781;SDS011;23621;50.878;4.584;2023-02-28T09:27:15;4.80;;;4.30;;
37781;SDS011;23621;50.878;4.584;2023-02-28T09:30:00;11.73;;;5.10;;
37781;SDS011;23621;50.878;4.584;2023-02-28T09:32:27;6.35;;;4.80;;
37781;SDS011;23621;50.878;4.584;2023-02-28T09:34:54;6.25;;;4.15;;
37781;SDS011;23621;50.878;4.584;2023-02-28T09:37:24;5.38;;;4.75;;
37781;SDS011;23621;50.878;4.584;2023-02-28T09:40:14;6.43;;;4.70;;
37781;SDS011;23621;50.878;4.584;2023-02-28T09:42:45;5.13;;;4.63;;
37781;SDS011;23621;50.878;4.584;2023-02-28T09:45:36;5.28;;;4.47;;
37781;SDS011;23621;50.878;4.584;2023-02-28T09:48:14;8.20;;;4.60;;
37781;SDS011;23621;50.878;4.584;2023-02-28T09:50:46;6.20;;;4.22;;
37781;SDS011;23621;50.878;4.584;2023-02-28T09:53:37;9.90;;;5.80;;
37781;SDS011;23621;50.878;4.584;2023-02-28T09:56:10;8.93;;;5.75;;
37781;SDS011;23621;50.878;4.584;2023-02-28T09:58:47;4.38;;;3.97;;
37781;SDS011;23621;50.878;4.584;2023-02-28T10:07:25;3.80;;;3.17;;
37781;SDS011;23621;50.878;4.584;2023-02-28T10:10:03;4.15;;;3.38;;
37781;SDS011;23621;50.878;4.584;2023-02-28T10:12:35;4.03;;;3.60;;
37781;SDS011;23621;50.878;4.584;2023-02-28T10:15:12;4.47;;;3.17;;
37781;SDS011;23621;50.878;4.584;2023-02-28T10:17:42;5.05;;;3.30;;
37781;SDS011;23621;50.878;4.584;2023-02-28T10:20:35;5.57;;;3.90;;
37781;SDS011;23621;50.878;4.584;2023-02-28T10:23:17;3.83;;;3.17;;
37781;SDS011;23621;50.878;4.584;2023-02-28T10:25:49;3.45;;;3.15;;
37781;SDS011;23621;50.878;4.584;2023-02-28T10:28:20;3.97;;;3.35;;
37781;SDS011;23621;50.878;4.584;2023-02-28T10:30:51;3.42;;;2.92;;
37781;SDS011;23621;50.878;4.584;2023-02-28T10:35:56;6.25;;;4.03;;
37781;SDS011;23621;50.878;4.584;2023-02-28T10:38:24;9.10;;;5.00;;
37781;SDS011;23621;50.878;4.584;2023-02-28T10:41:06;4.78;;;3.42;;
37781;SDS011;23621;50.878;4.584;2023-02-28T10:43:35;6.22;;;3.38;;
37781;SDS011;23621;50.878;4.584;2023-02-28T10:46:09;4.82;;;3.90;;
37781;SDS011;23621;50.878;4.584;2023-02-28T10:48:41;3.70;;;3.30;;
37781;SDS011;23621;50.878;4.584;2023-02-28T10:51:12;5.55;;;3.85;;
37781;SDS011;23621;50.878;4.584;2023-02-28T10:53:50;6.97;;;3.70;;
37781;SDS011;23621;50.878;4.584;2023-02-28T10:56:51;3.92;;;2.90;;
37781;SDS011;23621;50.878;4.584;2023-02-28T10:59:41;4.82;;;3.63;;
37781;SDS011;23621;50.878;4.584;2023-02-28T11:05:00;4.85;;;3.40;;
37781;SDS011;23621;50.878;4.584;2023-02-28T11:07:27;4.55;;;3.35;;
37781;SDS011;23621;50.878;4.584;2023-02-28T11:10:17;4.00;;;3.15;;
37781;SDS011;23621;50.878;4.584;2023-02-28T11:12:47;4.95;;;3.40;;
37781;SDS011;23621;50.878;4.584;2023-02-28T11:18:01;5.30;;;3.40;;
37781;SDS011;23621;50.878;4.584;2023-02-28T11:20:32;3.63;;;3.15;;
37781;SDS011;23621;50.878;4.584;2023-02-28T11:23:00;4.00;;;3.60;;
37781;SDS011;23621;50.878;4.584;2023-02-28T11:25:33;3.60;;;3.30;;
37781;SDS011;23621;50.878;4.584;2023-02-28T11:28:23;3.40;;;3.10;;
37781;SDS011;23621;50.878;4.584;2023-02-28T11:31:03;3.38;;;3.05;;
37781;SDS011;23621;50.878;4.584;2023-02-28T11:33:32;4.03;;;3.72;;
37781;SDS011;23621;50.878;4.584;2023-02-28T11:38:53;3.58;;;3.20;;
37781;SDS011;23621;50.878;4.584;2023-02-28T11:47:10;5.53;;;3.40;;
37781;SDS011;23621;50.878;4.584;2023-02-28T12:23:38;4.45;;;2.97;;
37781;SDS011;23621;50.878;4.584;2023-02-28T12:28:51;3.10;;;2.80;;
37781;SDS011;23621;50.878;4.584;2023-02-28T12:31:24;3.47;;;3.13;;
37781;SDS011;23621;50.878;4.584;2023-02-28T12:34:00;3.38;;;2.85;;
37781;SDS011;23621;50.878;4.584;2023-02-28T12:36:36;2.90;;;2.70;;
37781;SDS011;23621;50.878;4.584;2023-02-28T12:39:05;3.33;;;3.03;;
37781;SDS011;23621;50.878;4.584;2023-02-28T12:41:48;3.40;;;3.10;;
37781;SDS011;23621;50.878;4.584;2023-02-28T12:44:45;4.47;;;3.55;;
37781;SDS011;23621;50.878;4.584;2023-02-28T12:47:17;5.15;;;3.95;;
37781;SDS011;23621;50.878;4.584;2023-02-28T12:52:27;3.53;;;3.22;;
37781;SDS011;23621;50.878;4.584;2023-02-28T12:55:38;3.67;;;3.38;;
37781;SDS011;23621;50.878;4.584;2023-02-28T12:58:50;3.50;;;3.20;;
37781;SDS011;23621;50.878;4.584;2023-02-28T13:10:07;3.25;;;2.83;;
37781;SDS011;23621;50.878;4.584;2023-02-28T13:12:54;2.95;;;2.75;;
37781;SDS011;23621;50.878;4.584;2023-02-28T13:15:25;2.88;;;2.67;;
37781;SDS011;23621;50.878;4.584;2023-02-28T13:21:04;3.63;;;3.10;;
37781;SDS011;23621;50.878;4.584;2023-02-28T13:23:39;2.72;;;2.53;;
37781;SDS011;23621;50.878;4.584;2023-02-28T13:26:18;3.38;;;3.08;;
37781;SDS011;23621;50.878;4.584;2023-02-28T13:31:21;5.80;;;2.60;;
37781;SDS011;23621;50.878;4.584;2023-02-28T13:36:31;3.45;;;3.15;;
37781;SDS011;23621;50.878;4.584;2023-02-28T13:39:00;3.88;;;3.13;;
37781;SDS011;23621;50.878;4.584;2023-02-28T13:41:47;4.63;;;2.72;;
37781;SDS011;23621;50.878;4.584;2023-02-28T13:44:15;2.78;;;2.58;;
37781;SDS011;23621;50.878;4.584;2023-02-28T14:06:51;3.65;;;3.05;;
37781;SDS011;23621;50.878;4.584;2023-02-28T14:11:54;4.30;;;3.17;;
37781;SDS011;23621;50.878;4.584;2023-02-28T14:17:06;4.85;;;2.90;;
37781;SDS011;23621;50.878;4.584;2023-02-28T14:19:57;4.85;;;2.92;;
37781;SDS011;23621;50.878;4.584;2023-02-28T14:25:33;3.17;;;2.97;;
37781;SDS011;23621;50.878;4.584;2023-02-28T14:28:23;4.05;;;3.30;;
37781;SDS011;23621;50.878;4.584;2023-02-28T14:31:34;3.72;;;3.42;;
37781;SDS011;23621;50.878;4.584;2023-02-28T14:34:15;3.40;;;3.17;;
37781;SDS011;23621;50.878;4.584;2023-02-28T14:36:58;3.88;;;3.58;;
37781;SDS011;23621;50.878;4.584;2023-02-28T14:39:28;3.55;;;3.10;;
37781;SDS011;23621;50.878;4.584;2023-02-28T14:41:57;3.83;;;3.53;;
37781;SDS011;23621;50.878;4.584;2023-02-28T14:44:31;4.25;;;3.55;;
37781;SDS011;23621;50.878;4.584;2023-02-28T14:47:02;5.57;;;3.33;;
37781;SDS011;23621;50.878;4.584;2023-02-28T14:49:36;3.67;;;3.30;;
37781;SDS011;23621;50.878;4.584;2023-02-28T14:55:05;3.70;;;3.40;;
37781;SDS011;23621;50.878;4.584;2023-02-28T14:57:42;4.57;;;3.50;;
37781;SDS011;23621;50.878;4.584;2023-02-28T15:00:31;4.30;;;4.00;;
37781;SDS011;23621;50.878;4.584;2023-02-28T15:03:00;5.50;;;3.60;;
37781;SDS011;23621;50.878;4.584;2023-02-28T15:05:47;6.68;;;3.42;;
37781;SDS011;23621;50.878;4.584;2023-02-28T15:08:19;4.10;;;3.80;;
37781;SDS011;23621;50.878;4.584;2023-02-28T15:11:05;3.75;;;3.45;;
37781;SDS011;23621;50.878;4.584;2023-02-28T15:16:19;3.90;;;3.55;;
37781;SDS011;23621;50.878;4.584;2023-02-28T15:18:59;3.85;;;3.55;;
37781;SDS011;23621;50.878;4.584;2023-02-28T15:21:48;3.50;;;3.20;;
37781;SDS011;23621;50.878;4.584;2023-02-28T15:24:36;3.95;;;3.22;;
37781;SDS011;23621;50.878;4.584;2023-02-28T15:27:07;3.72;;;3.42;;
37781;SDS011;23621;50.878;4.584;2023-02-28T15:29:48;3.72;;;3.42;;
37781;SDS011;23621;50.878;4.584;2023-02-28T15:34:59;3.50;;;3.30;;
37781;SDS011;23621;50.878;4.584;2023-02-28T15:37:48;3.72;;;3.35;;
37781;SDS011;23621;50.878;4.584;2023-02-28T15:40:46;4.38;;;3.40;;
37781;SDS011;23621;50.878;4.584;2023-02-28T15:43:32;3.78;;;3.42;;
37781;SDS011;23621;50.878;4.584;2023-02-28T15:46:04;3.08;;;2.80;;
37781;SDS011;23621;50.878;4.584;2023-02-28T15:48:35;3.70;;;3.40;;
37781;SDS011;23621;50.878;4.584;2023-02-28T15:51:08;4.30;;;3.85;;
37781;SDS011;23621;50.878;4.584;2023-02-28T15:54:00;3.42;;;3.13;;
37781;SDS011;23621;50.878;4.584;2023-02-28T15:56:35;3.90;;;3.60;;
37781;SDS011;23621;50.878;4.584;2023-02-28T15:59:13;4.78;;;3.50;;
37781;SDS011;23621;50.878;4.584;2023-02-28T16:01:43;3.58;;;3.28;;
37781;SDS011;23621;50.878;4.584;2023-02-28T16:04:16;4.70;;;4.00;;
37781;SDS011;23621;50.878;4.584;2023-02-28T16:06:45;3.90;;;3.47;;
37781;SDS011;23621;50.878;4.584;2023-02-28T16:09:25;3.80;;;3.40;;
37781;SDS011;23621;50.878;4.584;2023-02-28T16:11:54;4.65;;;3.90;;
37781;SDS011;23621;50.878;4.584;2023-02-28T16:14:24;5.45;;;4.85;;
37781;SDS011;23621;50.878;4.584;2023-02-28T16:16:55;3.80;;;3.45;;
37781;SDS011;23621;50.878;4.584;2023-02-28T16:19:28;4.47;;;4.07;;
37781;SDS011;23621;50.878;4.584;2023-02-28T16:21:55;5.57;;;4.20;;
37781;SDS011;23621;50.878;4.584;2023-02-28T16:24:22;3.45;;;3.13;;
37781;SDS011;23621;50.878;4.584;2023-02-28T16:26:50;6.22;;;3.20;;
37781;SDS011;23621;50.878;4.584;2023-02-28T16:29:25;4.63;;;4.22;;
37781;SDS011;23621;50.878;4.584;2023-02-28T16:32:00;3.50;;;3.20;;
37781;SDS011;23621;50.878;4.584;2023-02-28T16:34:30;4.68;;;3.70;;
37781;SDS011;23621;50.878;4.584;2023-02-28T16:37:01;4.80;;;4.22;;
37781;SDS011;23621;50.878;4.584;2023-02-28T16:39:29;4.82;;;4.43;;
37781;SDS011;23621;50.878;4.584;2023-02-28T16:42:23;4.40;;;4.00;;
37781;SDS011;23621;50.878;4.584;2023-02-28T16:44:53;4.65;;;3.60;;
37781;SDS011;23621;50.878;4.584;2023-02-28T16:47:33;3.90;;;3.50;;
37781;SDS011;23621;50.878;4.584;2023-02-28T16:50:00;3.47;;;3.17;;
37781;SDS011;23621;50.878;4.584;2023-02-28T16:52:27;3.63;;;3.30;;
37781;SDS011;23621;50.878;4.584;2023-02-28T16:54:54;3.22;;;2.92;;
37781;SDS011;23621;50.878;4.584;2023-02-28T16:57:21;3.80;;;3.40;;
37781;SDS011;23621;50.878;4.584;2023-02-28T16:59:49;3.22;;;3.03;;
37781;SDS011;23621;50.878;4.584;2023-02-28T17:02:17;4.65;;;3.47;;
37781;SDS011;23621;50.878;4.584;2023-02-28T17:04:46;4.00;;;3.60;;
37781;SDS011;23621;50.878;4.584;2023-02-28T17:07:13;4.25;;;3.85;;
37781;SDS011;23621;50.878;4.584;2023-02-28T17:09:43;3.70;;;3.40;;
37781;SDS011;23621;50.878;4.584;2023-02-28T17:12:12;3.53;;;3.22;;
37781;SDS011;23621;50.878;4.584;2023-02-28T17:14:39;3.80;;;3.17;;
37781;SDS011;23621;50.878;4.584;2023-02-28T17:17:24;3.83;;;3.40;;
37781;SDS011;23621;50.878;4.584;2023-02-28T17:19:52;4.35;;;3.78;;
37781;SDS011;23621;50.878;4.584;2023-02-28T17:22:19;2.88;;;2.65;;
37781;SDS011;23621;50.878;4.584;2023-02-28T17:24:46;4.18;;;3.45;;
37781;SDS011;23621;50.878;4.584;2023-02-28T17:27:13;3.33;;;3.03;;
37781;SDS011;23621;50.878;4.584;2023-02-28T17:29:40;3.35;;;3.05;;
37781;SDS011;23621;50.878;4.584;2023-02-28T17:32:08;4.47;;;3.47;;
37781;SDS011;23621;50.878;4.584;2023-02-28T17:34:43;3.13;;;2.92;;
37781;SDS011;23621;50.878;4.584;2023-02-28T17:37:12;4.03;;;3.25;;
37781;SDS011;23621;50.878;4.584;2023-02-28T17:39:39;3.65;;;3.22;;
37781;SDS011;23621;50.878;4.584;2023-02-28T17:42:06;3.88;;;3.47;;